Terminal Aerodrome Forecast
Issued by NWS Houston/Galveston, TX

Home | Current Version | Previous Version | Text Only | Print | Product List | Glossary On
Versions: 1 2 3 4 5 6 7 8 9 10 11 12 13 14
000
FTUS44 KHGX 201722
TAFGLS
TAF
KGLS 201722Z 2018/2118 12010KT P6SM SCT250
     FM210600 16007KT P6SM SCT010 SCT250
     FM211400 15010KT P6SM SCT020 SCT250=

USA.gov is the U.S. government's official web portal to all federal, state and local government web resources and services.